Terminal Aerodrome Forecast
Issued by NWS

Home | Current Version | Previous Version | Text Only | Print | Product List | Glossary On
Versions: 1 2 3 4 5 6 7 8 9 10 11 12 13 14 15 16 17 18
000
FTUS43 KGRB 192000 AAA
TAFCWA
TAF AMD
KCWA 192052Z 1921/2018 15003KT P6SM BKN021
     FM192300 15004KT 6SM BR OVC011
     FM200800 17003KT 4SM BR OVC006=

USA.gov is the U.S. government's official web portal to all federal, state and local government web resources and services.